Ashton, Maryland
Current Conditions -  °F | °C
As of 4:35 PM on Friday 19 Dec 2014 (Local Time) from KGAI Reporting Station
Clear Clear  
Wind Chill: 28°   Ceiling: Unl
Heat Index: 36°   Visibility: 10mi
Dew Point: 21°   Wind: 10mph
Humidity: 56%   Direction: 300°WNW
Pressure: 30.19"   Gusts: NA
Location:  39.15°N, 77.01°W
Report Text: KGAI 192135Z 30009KT 10SM CLR 02/M06 A3019 RMK AO1
Loading
Personal Weather Stations






























Interactive Weather Map New forecast layout! Learn more

10-Day Weather Forecast

Advertisements
Track Severe Weather on mobile